sensor_id;sensor_type;location;lat;lon;timestamp;P1;durP1;ratioP1;P2;durP2;ratioP2
12788;SDS011;6458;42.710;23.192;2023-05-10T00:01:18;0.70;;;0.70;;
12788;SDS011;6458;42.710;23.192;2023-05-10T00:03:45;0.70;;;0.70;;
12788;SDS011;6458;42.710;23.192;2023-05-10T00:06:12;0.77;;;0.77;;
12788;SDS011;6458;42.710;23.192;2023-05-10T00:08:39;0.70;;;0.70;;
12788;SDS011;6458;42.710;23.192;2023-05-10T00:11:05;0.70;;;0.70;;
12788;SDS011;6458;42.710;23.192;2023-05-10T00:13:32;0.70;;;0.70;;
12788;SDS011;6458;42.710;23.192;2023-05-10T00:16:00;0.70;;;0.70;;
12788;SDS011;6458;42.710;23.192;2023-05-10T00:18:27;0.70;;;0.70;;
12788;SDS011;6458;42.710;23.192;2023-05-10T00:20:54;0.87;;;0.87;;
12788;SDS011;6458;42.710;23.192;2023-05-10T00:23:20;0.77;;;0.77;;
12788;SDS011;6458;42.710;23.192;2023-05-10T00:25:47;0.70;;;0.70;;
12788;SDS011;6458;42.710;23.192;2023-05-10T00:28:14;0.80;;;0.80;;
12788;SDS011;6458;42.710;23.192;2023-05-10T00:30:41;0.70;;;0.70;;
12788;SDS011;6458;42.710;23.192;2023-05-10T00:33:09;0.70;;;0.70;;
12788;SDS011;6458;42.710;23.192;2023-05-10T00:35:36;0.70;;;0.70;;
12788;SDS011;6458;42.710;23.192;2023-05-10T00:38:03;0.70;;;0.70;;
12788;SDS011;6458;42.710;23.192;2023-05-10T00:40:30;0.70;;;0.70;;
12788;SDS011;6458;42.710;23.192;2023-05-10T00:43:00;0.70;;;0.70;;
12788;SDS011;6458;42.710;23.192;2023-05-10T00:45:28;0.70;;;0.70;;
12788;SDS011;6458;42.710;23.192;2023-05-10T00:47:55;0.87;;;0.87;;
12788;SDS011;6458;42.710;23.192;2023-05-10T00:50:23;0.70;;;0.70;;
12788;SDS011;6458;42.710;23.192;2023-05-10T00:52:50;0.80;;;0.80;;
12788;SDS011;6458;42.710;23.192;2023-05-10T00:55:16;0.80;;;0.80;;
12788;SDS011;6458;42.710;23.192;2023-05-10T00:57:44;2.20;;;2.10;;
12788;SDS011;6458;42.710;23.192;2023-05-10T01:00:11;0.67;;;0.67;;
12788;SDS011;6458;42.710;23.192;2023-05-10T01:02:43;0.80;;;0.80;;
12788;SDS011;6458;42.710;23.192;2023-05-10T01:05:09;0.70;;;0.70;;
12788;SDS011;6458;42.710;23.192;2023-05-10T01:07:37;0.70;;;0.70;;
12788;SDS011;6458;42.710;23.192;2023-05-10T01:10:05;0.70;;;0.70;;
12788;SDS011;6458;42.710;23.192;2023-05-10T01:12:31;0.70;;;0.70;;
12788;SDS011;6458;42.710;23.192;2023-05-10T01:14:58;0.80;;;0.80;;
12788;SDS011;6458;42.710;23.192;2023-05-10T01:17:26;0.90;;;0.90;;
12788;SDS011;6458;42.710;23.192;2023-05-10T01:19:53;0.73;;;0.73;;
12788;SDS011;6458;42.710;23.192;2023-05-10T01:22:25;0.80;;;0.80;;
12788;SDS011;6458;42.710;23.192;2023-05-10T01:30:50;0.90;;;0.90;;
12788;SDS011;6458;42.710;23.192;2023-05-10T01:33:19;0.70;;;0.70;;
12788;SDS011;6458;42.710;23.192;2023-05-10T01:35:50;0.60;;;0.60;;
12788;SDS011;6458;42.710;23.192;2023-05-10T01:38:19;0.63;;;0.63;;
12788;SDS011;6458;42.710;23.192;2023-05-10T01:40:52;0.93;;;0.93;;
12788;SDS011;6458;42.710;23.192;2023-05-10T01:43:22;0.73;;;0.73;;
12788;SDS011;6458;42.710;23.192;2023-05-10T01:45:57;0.80;;;0.80;;
12788;SDS011;6458;42.710;23.192;2023-05-10T01:48:27;0.70;;;0.70;;
12788;SDS011;6458;42.710;23.192;2023-05-10T01:50:58;0.77;;;0.77;;
12788;SDS011;6458;42.710;23.192;2023-05-10T01:53:25;0.87;;;0.87;;
12788;SDS011;6458;42.710;23.192;2023-05-10T01:55:52;0.70;;;0.70;;
12788;SDS011;6458;42.710;23.192;2023-05-10T01:58:21;0.90;;;0.90;;
12788;SDS011;6458;42.710;23.192;2023-05-10T02:00:49;0.80;;;0.80;;
12788;SDS011;6458;42.710;23.192;2023-05-10T02:03:17;0.70;;;0.70;;
12788;SDS011;6458;42.710;23.192;2023-05-10T02:05:46;0.80;;;0.80;;
12788;SDS011;6458;42.710;23.192;2023-05-10T02:08:14;0.80;;;0.80;;
12788;SDS011;6458;42.710;23.192;2023-05-10T02:10:42;0.80;;;0.80;;
12788;SDS011;6458;42.710;23.192;2023-05-10T02:13:09;0.80;;;0.80;;
12788;SDS011;6458;42.710;23.192;2023-05-10T02:15:36;0.80;;;0.80;;
12788;SDS011;6458;42.710;23.192;2023-05-10T02:18:04;0.80;;;0.80;;
12788;SDS011;6458;42.710;23.192;2023-05-10T02:20:31;0.80;;;0.80;;
12788;SDS011;6458;42.710;23.192;2023-05-10T02:23:00;0.70;;;0.70;;
12788;SDS011;6458;42.710;23.192;2023-05-10T02:25:28;0.90;;;0.90;;
12788;SDS011;6458;42.710;23.192;2023-05-10T02:27:56;0.70;;;0.70;;
12788;SDS011;6458;42.710;23.192;2023-05-10T02:30:24;0.90;;;0.90;;
12788;SDS011;6458;42.710;23.192;2023-05-10T02:32:51;0.90;;;0.90;;
12788;SDS011;6458;42.710;23.192;2023-05-10T02:35:18;0.90;;;0.90;;
12788;SDS011;6458;42.710;23.192;2023-05-10T02:37:45;0.90;;;0.90;;
12788;SDS011;6458;42.710;23.192;2023-05-10T02:40:13;0.90;;;0.90;;
12788;SDS011;6458;42.710;23.192;2023-05-10T02:42:41;0.80;;;0.80;;
12788;SDS011;6458;42.710;23.192;2023-05-10T02:45:11;0.70;;;0.70;;
12788;SDS011;6458;42.710;23.192;2023-05-10T02:47:38;0.90;;;0.90;;
12788;SDS011;6458;42.710;23.192;2023-05-10T02:50:05;0.90;;;0.90;;
12788;SDS011;6458;42.710;23.192;2023-05-10T02:52:36;0.90;;;0.90;;
12788;SDS011;6458;42.710;23.192;2023-05-10T02:55:05;0.80;;;0.80;;
12788;SDS011;6458;42.710;23.192;2023-05-10T02:57:38;0.80;;;0.80;;
12788;SDS011;6458;42.710;23.192;2023-05-10T03:00:06;0.90;;;0.90;;
12788;SDS011;6458;42.710;23.192;2023-05-10T03:02:33;0.90;;;0.90;;
12788;SDS011;6458;42.710;23.192;2023-05-10T03:05:01;0.80;;;0.80;;
12788;SDS011;6458;42.710;23.192;2023-05-10T03:07:28;0.90;;;0.90;;
12788;SDS011;6458;42.710;23.192;2023-05-10T03:09:55;0.90;;;0.90;;
12788;SDS011;6458;42.710;23.192;2023-05-10T03:12:24;0.80;;;0.80;;
12788;SDS011;6458;42.710;23.192;2023-05-10T03:14:56;0.93;;;0.93;;
12788;SDS011;6458;42.710;23.192;2023-05-10T03:17:25;0.80;;;0.80;;
12788;SDS011;6458;42.710;23.192;2023-05-10T03:19:55;0.80;;;0.80;;
12788;SDS011;6458;42.710;23.192;2023-05-10T03:22:24;0.90;;;0.90;;
12788;SDS011;6458;42.710;23.192;2023-05-10T03:24:53;0.70;;;0.70;;
12788;SDS011;6458;42.710;23.192;2023-05-10T03:27:20;0.97;;;0.97;;
12788;SDS011;6458;42.710;23.192;2023-05-10T03:29:47;1.10;;;1.10;;
12788;SDS011;6458;42.710;23.192;2023-05-10T03:32:17;1.00;;;1.00;;
12788;SDS011;6458;42.710;23.192;2023-05-10T03:34:44;0.80;;;0.80;;
12788;SDS011;6458;42.710;23.192;2023-05-10T03:37:11;0.80;;;0.80;;
12788;SDS011;6458;42.710;23.192;2023-05-10T03:39:38;0.80;;;0.80;;
12788;SDS011;6458;42.710;23.192;2023-05-10T03:42:04;0.80;;;0.80;;
12788;SDS011;6458;42.710;23.192;2023-05-10T03:44:31;0.80;;;0.80;;
12788;SDS011;6458;42.710;23.192;2023-05-10T03:46:58;0.80;;;0.80;;
12788;SDS011;6458;42.710;23.192;2023-05-10T03:49:27;0.90;;;0.90;;
12788;SDS011;6458;42.710;23.192;2023-05-10T03:51:53;0.90;;;0.90;;
12788;SDS011;6458;42.710;23.192;2023-05-10T03:54:20;0.90;;;0.90;;
12788;SDS011;6458;42.710;23.192;2023-05-10T03:56:47;0.80;;;0.80;;
12788;SDS011;6458;42.710;23.192;2023-05-10T03:59:14;0.90;;;0.90;;
12788;SDS011;6458;42.710;23.192;2023-05-10T04:01:41;0.77;;;0.77;;
12788;SDS011;6458;42.710;23.192;2023-05-10T04:04:07;0.90;;;0.90;;
12788;SDS011;6458;42.710;23.192;2023-05-10T04:06:37;0.90;;;0.90;;
12788;SDS011;6458;42.710;23.192;2023-05-10T04:09:04;0.87;;;0.87;;
12788;SDS011;6458;42.710;23.192;2023-05-10T04:11:30;0.80;;;0.80;;
12788;SDS011;6458;42.710;23.192;2023-05-10T04:13:57;0.80;;;0.80;;
12788;SDS011;6458;42.710;23.192;2023-05-10T04:16:24;1.03;;;1.03;;
12788;SDS011;6458;42.710;23.192;2023-05-10T04:18:50;0.87;;;0.87;;
12788;SDS011;6458;42.710;23.192;2023-05-10T04:21:17;0.80;;;0.80;;
12788;SDS011;6458;42.710;23.192;2023-05-10T04:23:46;0.80;;;0.80;;
12788;SDS011;6458;42.710;23.192;2023-05-10T04:26:12;0.97;;;0.97;;
12788;SDS011;6458;42.710;23.192;2023-05-10T04:28:39;1.00;;;1.00;;
12788;SDS011;6458;42.710;23.192;2023-05-10T04:31:06;0.80;;;0.80;;
12788;SDS011;6458;42.710;23.192;2023-05-10T04:33:33;0.80;;;0.80;;
12788;SDS011;6458;42.710;23.192;2023-05-10T04:36:00;0.90;;;0.90;;
12788;SDS011;6458;42.710;23.192;2023-05-10T04:38:28;0.80;;;0.80;;
12788;SDS011;6458;42.710;23.192;2023-05-10T04:41:03;0.97;;;0.97;;
12788;SDS011;6458;42.710;23.192;2023-05-10T04:43:30;0.80;;;0.80;;
12788;SDS011;6458;42.710;23.192;2023-05-10T04:45:57;0.93;;;0.93;;
12788;SDS011;6458;42.710;23.192;2023-05-10T04:48:24;0.77;;;0.77;;
12788;SDS011;6458;42.710;23.192;2023-05-10T04:50:51;1.00;;;1.00;;
12788;SDS011;6458;42.710;23.192;2023-05-10T04:53:17;0.90;;;0.90;;
12788;SDS011;6458;42.710;23.192;2023-05-10T04:55:44;0.90;;;0.90;;
12788;SDS011;6458;42.710;23.192;2023-05-10T04:58:13;0.90;;;0.90;;
12788;SDS011;6458;42.710;23.192;2023-05-10T05:00:39;0.93;;;0.93;;
12788;SDS011;6458;42.710;23.192;2023-05-10T05:03:06;0.90;;;0.90;;
12788;SDS011;6458;42.710;23.192;2023-05-10T05:05:33;0.80;;;0.80;;
12788;SDS011;6458;42.710;23.192;2023-05-10T05:08:00;0.80;;;0.80;;
12788;SDS011;6458;42.710;23.192;2023-05-10T05:10:27;0.90;;;0.90;;
12788;SDS011;6458;42.710;23.192;2023-05-10T05:12:53;0.93;;;0.93;;
12788;SDS011;6458;42.710;23.192;2023-05-10T05:15:22;0.87;;;0.87;;
12788;SDS011;6458;42.710;23.192;2023-05-10T05:17:48;0.90;;;0.90;;
12788;SDS011;6458;42.710;23.192;2023-05-10T05:20:15;0.80;;;0.80;;
12788;SDS011;6458;42.710;23.192;2023-05-10T05:22:42;0.80;;;0.80;;
12788;SDS011;6458;42.710;23.192;2023-05-10T05:25:09;0.80;;;0.80;;
12788;SDS011;6458;42.710;23.192;2023-05-10T05:27:36;0.70;;;0.70;;
12788;SDS011;6458;42.710;23.192;2023-05-10T05:30:04;0.60;;;0.60;;
12788;SDS011;6458;42.710;23.192;2023-05-10T05:32:33;0.90;;;0.90;;
12788;SDS011;6458;42.710;23.192;2023-05-10T05:34:59;0.80;;;0.80;;
12788;SDS011;6458;42.710;23.192;2023-05-10T05:37:26;0.90;;;0.90;;
12788;SDS011;6458;42.710;23.192;2023-05-10T05:39:53;0.80;;;0.80;;
12788;SDS011;6458;42.710;23.192;2023-05-10T05:42:20;0.90;;;0.90;;
12788;SDS011;6458;42.710;23.192;2023-05-10T05:44:46;0.87;;;0.87;;
12788;SDS011;6458;42.710;23.192;2023-05-10T05:47:13;0.80;;;0.80;;
12788;SDS011;6458;42.710;23.192;2023-05-10T05:49:41;0.90;;;0.90;;
12788;SDS011;6458;42.710;23.192;2023-05-10T05:52:10;0.80;;;0.80;;
12788;SDS011;6458;42.710;23.192;2023-05-10T05:54:37;0.80;;;0.80;;
12788;SDS011;6458;42.710;23.192;2023-05-10T05:57:04;0.93;;;0.93;;
12788;SDS011;6458;42.710;23.192;2023-05-10T05:59:31;1.10;;;1.10;;
12788;SDS011;6458;42.710;23.192;2023-05-10T06:01:57;0.80;;;0.80;;
12788;SDS011;6458;42.710;23.192;2023-05-10T06:04:25;0.80;;;0.80;;
12788;SDS011;6458;42.710;23.192;2023-05-10T06:06:53;0.77;;;0.77;;
12788;SDS011;6458;42.710;23.192;2023-05-10T06:09:20;0.70;;;0.70;;
12788;SDS011;6458;42.710;23.192;2023-05-10T06:11:48;0.70;;;0.70;;
12788;SDS011;6458;42.710;23.192;2023-05-10T06:14:15;0.90;;;0.90;;
12788;SDS011;6458;42.710;23.192;2023-05-10T06:16:42;0.80;;;0.80;;
12788;SDS011;6458;42.710;23.192;2023-05-10T06:19:09;0.90;;;0.90;;
12788;SDS011;6458;42.710;23.192;2023-05-10T06:21:36;0.83;;;0.83;;
12788;SDS011;6458;42.710;23.192;2023-05-10T06:24:04;2.27;;;2.17;;
12788;SDS011;6458;42.710;23.192;2023-05-10T06:26:31;0.70;;;0.70;;
12788;SDS011;6458;42.710;23.192;2023-05-10T06:28:58;0.80;;;0.80;;
12788;SDS011;6458;42.710;23.192;2023-05-10T06:31:26;0.80;;;0.80;;
12788;SDS011;6458;42.710;23.192;2023-05-10T06:33:52;0.80;;;0.80;;
12788;SDS011;6458;42.710;23.192;2023-05-10T06:36:19;0.80;;;0.80;;
12788;SDS011;6458;42.710;23.192;2023-05-10T06:38:47;0.90;;;0.90;;
12788;SDS011;6458;42.710;23.192;2023-05-10T06:41:15;0.80;;;0.80;;
12788;SDS011;6458;42.710;23.192;2023-05-10T06:43:41;0.80;;;0.80;;
12788;SDS011;6458;42.710;23.192;2023-05-10T06:46:08;0.80;;;0.80;;
12788;SDS011;6458;42.710;23.192;2023-05-10T06:48:35;0.80;;;0.80;;
12788;SDS011;6458;42.710;23.192;2023-05-10T06:51:02;0.90;;;0.90;;
12788;SDS011;6458;42.710;23.192;2023-05-10T06:53:29;0.90;;;0.90;;
12788;SDS011;6458;42.710;23.192;2023-05-10T06:55:56;0.80;;;0.80;;
12788;SDS011;6458;42.710;23.192;2023-05-10T06:58:25;0.80;;;0.80;;
12788;SDS011;6458;42.710;23.192;2023-05-10T07:00:51;0.83;;;0.83;;
12788;SDS011;6458;42.710;23.192;2023-05-10T07:03:18;0.80;;;0.80;;
12788;SDS011;6458;42.710;23.192;2023-05-10T07:05:45;0.80;;;0.80;;
12788;SDS011;6458;42.710;23.192;2023-05-10T07:08:11;0.80;;;0.80;;
12788;SDS011;6458;42.710;23.192;2023-05-10T07:10:38;0.80;;;0.80;;
12788;SDS011;6458;42.710;23.192;2023-05-10T07:13:05;0.80;;;0.80;;
12788;SDS011;6458;42.710;23.192;2023-05-10T07:15:33;0.80;;;0.80;;
12788;SDS011;6458;42.710;23.192;2023-05-10T07:18:00;0.70;;;0.70;;
12788;SDS011;6458;42.710;23.192;2023-05-10T07:20:26;0.90;;;0.90;;
12788;SDS011;6458;42.710;23.192;2023-05-10T07:22:53;0.80;;;0.80;;
12788;SDS011;6458;42.710;23.192;2023-05-10T07:25:20;0.80;;;0.80;;
12788;SDS011;6458;42.710;23.192;2023-05-10T07:27:47;0.90;;;0.90;;
12788;SDS011;6458;42.710;23.192;2023-05-10T07:30:14;0.80;;;0.80;;
12788;SDS011;6458;42.710;23.192;2023-05-10T07:32:43;0.90;;;0.90;;
12788;SDS011;6458;42.710;23.192;2023-05-10T07:35:10;0.80;;;0.80;;
12788;SDS011;6458;42.710;23.192;2023-05-10T07:37:36;1.00;;;1.00;;
12788;SDS011;6458;42.710;23.192;2023-05-10T07:40:03;0.80;;;0.80;;
12788;SDS011;6458;42.710;23.192;2023-05-10T07:42:30;0.90;;;0.90;;
12788;SDS011;6458;42.710;23.192;2023-05-10T07:44:57;0.90;;;0.90;;
12788;SDS011;6458;42.710;23.192;2023-05-10T07:47:24;0.90;;;0.90;;
12788;SDS011;6458;42.710;23.192;2023-05-10T07:49:53;0.97;;;0.97;;
12788;SDS011;6458;42.710;23.192;2023-05-10T07:52:19;0.80;;;0.80;;
12788;SDS011;6458;42.710;23.192;2023-05-10T07:54:46;0.83;;;0.83;;
12788;SDS011;6458;42.710;23.192;2023-05-10T07:57:13;0.80;;;0.80;;
12788;SDS011;6458;42.710;23.192;2023-05-10T07:59:42;0.80;;;0.80;;
12788;SDS011;6458;42.710;23.192;2023-05-10T08:02:09;0.83;;;0.83;;
12788;SDS011;6458;42.710;23.192;2023-05-10T08:04:36;0.80;;;0.80;;
12788;SDS011;6458;42.710;23.192;2023-05-10T08:07:04;0.90;;;0.90;;
12788;SDS011;6458;42.710;23.192;2023-05-10T08:09:31;0.70;;;0.70;;
12788;SDS011;6458;42.710;23.192;2023-05-10T08:11:58;0.87;;;0.87;;
12788;SDS011;6458;42.710;23.192;2023-05-10T08:14:25;1.00;;;1.00;;
12788;SDS011;6458;42.710;23.192;2023-05-10T08:16:51;0.73;;;0.73;;
12788;SDS011;6458;42.710;23.192;2023-05-10T08:19:18;0.90;;;0.90;;
12788;SDS011;6458;42.710;23.192;2023-05-10T08:21:46;0.67;;;0.67;;
12788;SDS011;6458;42.710;23.192;2023-05-10T08:24:15;0.80;;;0.80;;
12788;SDS011;6458;42.710;23.192;2023-05-10T08:26:41;0.90;;;0.90;;
12788;SDS011;6458;42.710;23.192;2023-05-10T08:29:08;0.80;;;0.80;;
12788;SDS011;6458;42.710;23.192;2023-05-10T08:31:35;0.80;;;0.80;;
12788;SDS011;6458;42.710;23.192;2023-05-10T08:34:01;1.17;;;1.17;;
12788;SDS011;6458;42.710;23.192;2023-05-10T08:36:28;0.83;;;0.83;;
12788;SDS011;6458;42.710;23.192;2023-05-10T08:38:55;0.80;;;0.80;;
12788;SDS011;6458;42.710;23.192;2023-05-10T08:41:23;0.80;;;0.80;;
12788;SDS011;6458;42.710;23.192;2023-05-10T08:43:50;0.80;;;0.80;;
12788;SDS011;6458;42.710;23.192;2023-05-10T08:46:18;0.80;;;0.80;;
12788;SDS011;6458;42.710;23.192;2023-05-10T08:48:45;0.90;;;0.90;;
12788;SDS011;6458;42.710;23.192;2023-05-10T08:51:12;0.70;;;0.70;;
12788;SDS011;6458;42.710;23.192;2023-05-10T08:53:39;0.80;;;0.80;;
12788;SDS011;6458;42.710;23.192;2023-05-10T08:56:06;0.50;;;0.50;;
12788;SDS011;6458;42.710;23.192;2023-05-10T08:58:35;0.60;;;0.60;;
12788;SDS011;6458;42.710;23.192;2023-05-10T09:01:02;0.63;;;0.63;;
12788;SDS011;6458;42.710;23.192;2023-05-10T09:03:29;0.73;;;0.73;;
12788;SDS011;6458;42.710;23.192;2023-05-10T09:05:56;0.70;;;0.70;;
12788;SDS011;6458;42.710;23.192;2023-05-10T09:08:23;0.73;;;0.73;;
12788;SDS011;6458;42.710;23.192;2023-05-10T09:10:51;0.60;;;0.60;;
12788;SDS011;6458;42.710;23.192;2023-05-10T09:13:18;0.90;;;0.90;;
12788;SDS011;6458;42.710;23.192;2023-05-10T09:15:47;0.60;;;0.60;;
12788;SDS011;6458;42.710;23.192;2023-05-10T09:18:13;0.73;;;0.73;;
12788;SDS011;6458;42.710;23.192;2023-05-10T09:20:40;0.90;;;0.90;;
12788;SDS011;6458;42.710;23.192;2023-05-10T09:23:07;0.80;;;0.80;;
12788;SDS011;6458;42.710;23.192;2023-05-10T09:25:34;0.80;;;0.80;;
12788;SDS011;6458;42.710;23.192;2023-05-10T09:28:02;0.70;;;0.70;;
12788;SDS011;6458;42.710;23.192;2023-05-10T09:30:32;0.80;;;0.80;;
12788;SDS011;6458;42.710;23.192;2023-05-10T09:33:00;0.80;;;0.80;;
12788;SDS011;6458;42.710;23.192;2023-05-10T09:35:27;0.80;;;0.80;;
12788;SDS011;6458;42.710;23.192;2023-05-10T09:37:55;0.70;;;0.70;;
12788;SDS011;6458;42.710;23.192;2023-05-10T09:40:23;12.53;;;9.77;;
12788;SDS011;6458;42.710;23.192;2023-05-10T09:42:51;13.73;;;12.27;;
12788;SDS011;6458;42.710;23.192;2023-05-10T09:45:18;12.20;;;10.17;;
12788;SDS011;6458;42.710;23.192;2023-05-10T09:47:45;12.40;;;9.33;;
12788;SDS011;6458;42.710;23.192;2023-05-10T09:50:13;14.13;;;11.53;;
12788;SDS011;6458;42.710;23.192;2023-05-10T09:52:45;13.00;;;11.67;;
12788;SDS011;6458;42.710;23.192;2023-05-10T09:55:13;11.93;;;10.83;;
12788;SDS011;6458;42.710;23.192;2023-05-10T09:57:40;15.27;;;10.03;;
12788;SDS011;6458;42.710;23.192;2023-05-10T10:00:07;11.70;;;10.50;;
12788;SDS011;6458;42.710;23.192;2023-05-10T10:02:35;11.73;;;10.53;;
12788;SDS011;6458;42.710;23.192;2023-05-10T10:05:01;10.47;;;9.37;;
12788;SDS011;6458;42.710;23.192;2023-05-10T10:07:30;10.37;;;9.37;;
12788;SDS011;6458;42.710;23.192;2023-05-10T10:09:57;11.50;;;10.30;;
12788;SDS011;6458;42.710;23.192;2023-05-10T10:12:24;10.97;;;9.30;;
12788;SDS011;6458;42.710;23.192;2023-05-10T10:14:51;10.20;;;9.17;;
12788;SDS011;6458;42.710;23.192;2023-05-10T10:17:19;12.03;;;10.83;;
12788;SDS011;6458;42.710;23.192;2023-05-10T10:19:46;11.17;;;10.07;;
12788;SDS011;6458;42.710;23.192;2023-05-10T10:22:14;11.93;;;10.70;;
12788;SDS011;6458;42.710;23.192;2023-05-10T10:24:43;11.10;;;10.07;;
12788;SDS011;6458;42.710;23.192;2023-05-10T10:27:13;11.97;;;10.87;;
12788;SDS011;6458;42.710;23.192;2023-05-10T10:29:44;11.20;;;10.10;;
12788;SDS011;6458;42.710;23.192;2023-05-10T10:32:18;10.00;;;9.00;;
12788;SDS011;6458;42.710;23.192;2023-05-10T10:34:46;14.30;;;10.33;;
12788;SDS011;6458;42.710;23.192;2023-05-10T10:37:13;9.60;;;8.63;;
12788;SDS011;6458;42.710;23.192;2023-05-10T10:39:40;9.50;;;8.10;;
12788;SDS011;6458;42.710;23.192;2023-05-10T10:42:08;9.70;;;8.70;;
12788;SDS011;6458;42.710;23.192;2023-05-10T10:44:36;9.73;;;8.83;;
12788;SDS011;6458;42.710;23.192;2023-05-10T10:47:07;7.47;;;6.80;;
12788;SDS011;6458;42.710;23.192;2023-05-10T10:49:43;8.20;;;7.40;;
12788;SDS011;6458;42.710;23.192;2023-05-10T10:52:20;10.40;;;9.30;;
12788;SDS011;6458;42.710;23.192;2023-05-10T10:54:50;11.90;;;8.37;;
12788;SDS011;6458;42.710;23.192;2023-05-10T10:57:19;9.10;;;8.20;;
12788;SDS011;6458;42.710;23.192;2023-05-10T10:59:47;9.43;;;8.63;;
12788;SDS011;6458;42.710;23.192;2023-05-10T11:02:32;9.93;;;9.03;;
12788;SDS011;6458;42.710;23.192;2023-05-10T11:04:59;9.73;;;8.47;;
12788;SDS011;6458;42.710;23.192;2023-05-10T11:07:25;13.20;;;8.10;;
12788;SDS011;6458;42.710;23.192;2023-05-10T11:09:52;8.43;;;7.73;;
12788;SDS011;6458;42.710;23.192;2023-05-10T11:12:21;7.03;;;6.43;;
12788;SDS011;6458;42.710;23.192;2023-05-10T11:14:49;8.80;;;7.90;;
12788;SDS011;6458;42.710;23.192;2023-05-10T11:17:22;8.00;;;7.23;;
12788;SDS011;6458;42.710;23.192;2023-05-10T11:20:06;9.47;;;8.47;;
12788;SDS011;6458;42.710;23.192;2023-05-10T11:22:34;8.40;;;7.70;;
12788;SDS011;6458;42.710;23.192;2023-05-10T11:25:15;9.73;;;8.83;;
12788;SDS011;6458;42.710;23.192;2023-05-10T11:27:43;9.47;;;8.67;;
12788;SDS011;6458;42.710;23.192;2023-05-10T11:30:10;8.60;;;7.83;;
12788;SDS011;6458;42.710;23.192;2023-05-10T11:32:37;10.17;;;8.50;;
12788;SDS011;6458;42.710;23.192;2023-05-10T11:35:06;9.40;;;8.50;;
12788;SDS011;6458;42.710;23.192;2023-05-10T11:37:33;8.20;;;7.40;;
12788;SDS011;6458;42.710;23.192;2023-05-10T11:40:00;9.07;;;8.17;;
12788;SDS011;6458;42.710;23.192;2023-05-10T11:42:27;8.07;;;7.27;;
12788;SDS011;6458;42.710;23.192;2023-05-10T11:44:55;9.43;;;7.53;;
12788;SDS011;6458;42.710;23.192;2023-05-10T11:47:22;8.83;;;7.87;;
12788;SDS011;6458;42.710;23.192;2023-05-10T11:49:49;8.90;;;8.00;;
12788;SDS011;6458;42.710;23.192;2023-05-10T11:52:17;8.70;;;7.90;;
12788;SDS011;6458;42.710;23.192;2023-05-10T11:54:45;7.77;;;7.13;;
12788;SDS011;6458;42.710;23.192;2023-05-10T11:57:12;8.40;;;7.70;;
12788;SDS011;6458;42.710;23.192;2023-05-10T11:59:39;8.03;;;7.43;;
12788;SDS011;6458;42.710;23.192;2023-05-10T12:02:09;9.60;;;8.33;;
12788;SDS011;6458;42.710;23.192;2023-05-10T12:04:36;8.97;;;8.17;;
12788;SDS011;6458;42.710;23.192;2023-05-10T12:07:03;9.27;;;8.47;;
12788;SDS011;6458;42.710;23.192;2023-05-10T12:09:29;7.77;;;7.07;;
12788;SDS011;6458;42.710;23.192;2023-05-10T12:11:56;7.43;;;6.80;;
12788;SDS011;6458;42.710;23.192;2023-05-10T12:14:23;10.00;;;8.50;;
12788;SDS011;6458;42.710;23.192;2023-05-10T12:16:50;8.93;;;7.93;;
12788;SDS011;6458;42.710;23.192;2023-05-10T12:19:19;9.03;;;8.13;;
12788;SDS011;6458;42.710;23.192;2023-05-10T12:21:46;8.57;;;7.70;;
12788;SDS011;6458;42.710;23.192;2023-05-10T12:24:13;9.50;;;8.60;;
12788;SDS011;6458;42.710;23.192;2023-05-10T12:26:42;10.37;;;9.27;;
12788;SDS011;6458;42.710;23.192;2023-05-10T12:29:12;10.37;;;9.27;;
12788;SDS011;6458;42.710;23.192;2023-05-10T12:31:53;10.33;;;9.27;;
12788;SDS011;6458;42.710;23.192;2023-05-10T12:34:30;9.67;;;8.77;;
12788;SDS011;6458;42.710;23.192;2023-05-10T12:36:56;12.70;;;8.70;;
12788;SDS011;6458;42.710;23.192;2023-05-10T12:39:23;9.83;;;8.83;;
12788;SDS011;6458;42.710;23.192;2023-05-10T12:41:50;9.17;;;8.37;;
12788;SDS011;6458;42.710;23.192;2023-05-10T12:44:17;11.53;;;8.87;;
12788;SDS011;6458;42.710;23.192;2023-05-10T12:46:44;9.30;;;8.40;;
12788;SDS011;6458;42.710;23.192;2023-05-10T12:49:11;8.90;;;7.90;;
12788;SDS011;6458;42.710;23.192;2023-05-10T12:51:39;12.07;;;9.63;;
12788;SDS011;6458;42.710;23.192;2023-05-10T12:54:06;9.17;;;8.30;;
12788;SDS011;6458;42.710;23.192;2023-05-10T12:56:32;9.87;;;8.87;;
12788;SDS011;6458;42.710;23.192;2023-05-10T12:58:59;8.97;;;8.07;;
12788;SDS011;6458;42.710;23.192;2023-05-10T13:01:26;12.10;;;8.13;;
12788;SDS011;6458;42.710;23.192;2023-05-10T13:03:53;10.63;;;8.73;;
12788;SDS011;6458;42.710;23.192;2023-05-10T13:06:19;11.20;;;9.03;;
12788;SDS011;6458;42.710;23.192;2023-05-10T13:08:48;10.37;;;9.17;;
12788;SDS011;6458;42.710;23.192;2023-05-10T13:11:14;9.80;;;8.80;;
12788;SDS011;6458;42.710;23.192;2023-05-10T13:13:42;9.83;;;8.83;;
12788;SDS011;6458;42.710;23.192;2023-05-10T13:16:09;8.27;;;7.40;;
12788;SDS011;6458;42.710;23.192;2023-05-10T13:18:35;12.03;;;9.70;;
12788;SDS011;6458;42.710;23.192;2023-05-10T13:21:02;10.60;;;9.60;;
12788;SDS011;6458;42.710;23.192;2023-05-10T13:23:30;10.37;;;9.43;;
12788;SDS011;6458;42.710;23.192;2023-05-10T13:25:58;11.90;;;8.93;;
12788;SDS011;6458;42.710;23.192;2023-05-10T13:28:25;9.80;;;8.80;;
12788;SDS011;6458;42.710;23.192;2023-05-10T13:30:52;9.60;;;8.70;;
12788;SDS011;6458;42.710;23.192;2023-05-10T13:33:18;10.93;;;9.07;;
12788;SDS011;6458;42.710;23.192;2023-05-10T13:35:45;9.40;;;8.23;;
12788;SDS011;6458;42.710;23.192;2023-05-10T13:38:12;9.37;;;8.57;;
12788;SDS011;6458;42.710;23.192;2023-05-10T13:40:38;9.50;;;8.53;;
12788;SDS011;6458;42.710;23.192;2023-05-10T13:43:07;8.07;;;7.27;;
12788;SDS011;6458;42.710;23.192;2023-05-10T13:45:33;7.57;;;6.80;;
12788;SDS011;6458;42.710;23.192;2023-05-10T13:48:01;9.57;;;8.47;;
12788;SDS011;6458;42.710;23.192;2023-05-10T13:50:28;10.43;;;8.77;;
12788;SDS011;6458;42.710;23.192;2023-05-10T13:52:54;8.93;;;8.03;;
12788;SDS011;6458;42.710;23.192;2023-05-10T13:58:25;8.10;;;7.30;;
12788;SDS011;6458;42.710;23.192;2023-05-10T14:00:52;9.90;;;8.90;;
12788;SDS011;6458;42.710;23.192;2023-05-10T14:03:19;9.83;;;8.87;;
12788;SDS011;6458;42.710;23.192;2023-05-10T14:05:45;11.77;;;9.73;;
12788;SDS011;6458;42.710;23.192;2023-05-10T14:08:12;8.97;;;8.07;;
12788;SDS011;6458;42.710;23.192;2023-05-10T14:10:39;9.70;;;8.80;;
12788;SDS011;6458;42.710;23.192;2023-05-10T14:13:06;10.60;;;9.50;;
12788;SDS011;6458;42.710;23.192;2023-05-10T14:15:35;10.70;;;9.60;;
12788;SDS011;6458;42.710;23.192;2023-05-10T14:18:01;9.73;;;7.90;;
12788;SDS011;6458;42.710;23.192;2023-05-10T14:20:28;7.80;;;7.03;;
12788;SDS011;6458;42.710;23.192;2023-05-10T14:22:55;9.13;;;8.23;;
12788;SDS011;6458;42.710;23.192;2023-05-10T14:25:22;9.43;;;7.93;;
12788;SDS011;6458;42.710;23.192;2023-05-10T14:27:49;10.40;;;9.30;;
12788;SDS011;6458;42.710;23.192;2023-05-10T14:30:16;9.73;;;8.73;;
12788;SDS011;6458;42.710;23.192;2023-05-10T14:32:44;9.83;;;8.87;;
12788;SDS011;6458;42.710;23.192;2023-05-10T14:35:11;9.77;;;8.77;;
12788;SDS011;6458;42.710;23.192;2023-05-10T14:37:38;7.77;;;7.00;;
12788;SDS011;6458;42.710;23.192;2023-05-10T14:40:05;9.00;;;8.10;;
12788;SDS011;6458;42.710;23.192;2023-05-10T14:42:33;12.03;;;8.83;;
12788;SDS011;6458;42.710;23.192;2023-05-10T14:45:00;8.83;;;7.93;;
12788;SDS011;6458;42.710;23.192;2023-05-10T14:47:26;8.80;;;7.90;;
12788;SDS011;6458;42.710;23.192;2023-05-10T14:49:55;9.33;;;8.40;;
12788;SDS011;6458;42.710;23.192;2023-05-10T14:55:24;10.63;;;9.53;;
12788;SDS011;6458;42.710;23.192;2023-05-10T14:57:51;8.63;;;7.83;;
12788;SDS011;6458;42.710;23.192;2023-05-10T15:00:18;8.67;;;7.80;;